sensor_id;sensor_type;location;lat;lon;timestamp;pressure;altitude;pressure_sealevel;temperature;humidity
64362;BME280;50685;53.346;-6.296;2023-01-24T07:57:58;103640.72;;;6.60;100.00
64362;BME280;50685;53.346;-6.296;2023-01-24T08:00:51;103643.44;;;6.62;100.00
64362;BME280;50685;53.346;-6.296;2023-01-24T08:06:25;103650.53;;;6.63;100.00
64362;BME280;50685;53.346;-6.296;2023-01-24T08:09:23;103651.41;;;6.63;100.00
64362;BME280;50685;53.346;-6.296;2023-01-24T08:11:59;103655.81;;;6.63;100.00
64362;BME280;50685;53.346;-6.296;2023-01-24T08:14:27;103662.13;;;6.66;100.00
64362;BME280;50685;53.346;-6.296;2023-01-24T08:20:11;103673.50;;;6.65;100.00
64362;BME280;50685;53.346;-6.296;2023-01-24T08:35:21;103669.78;;;6.43;100.00
64362;BME280;50685;53.346;-6.296;2023-01-24T08:37:56;103672.16;;;6.39;100.00
64362;BME280;50685;53.346;-6.296;2023-01-24T08:40:24;103670.28;;;6.36;100.00
64362;BME280;50685;53.346;-6.296;2023-01-24T08:42:52;103671.84;;;6.33;100.00
64362;BME280;50685;53.346;-6.296;2023-01-24T08:45:18;103667.50;;;6.33;100.00
64362;BME280;50685;53.346;-6.296;2023-01-24T08:47:50;103666.78;;;6.54;100.00
64362;BME280;50685;53.346;-6.296;2023-01-24T08:50:15;103664.63;;;6.81;100.00
64362;BME280;50685;53.346;-6.296;2023-01-24T08:52:41;103668.28;;;7.03;100.00
64362;BME280;50685;53.346;-6.296;2023-01-24T08:55:06;103674.63;;;7.06;100.00
64362;BME280;50685;53.346;-6.296;2023-01-24T09:09:57;103664.63;;;8.77;91.65
64362;BME280;50685;53.346;-6.296;2023-01-24T09:12:23;103662.81;;;8.97;87.78
64362;BME280;50685;53.346;-6.296;2023-01-24T09:14:48;103665.81;;;9.29;86.71
64362;BME280;50685;53.346;-6.296;2023-01-24T09:17:13;103658.81;;;9.54;84.62
64362;BME280;50685;53.346;-6.296;2023-01-24T09:19:39;103663.66;;;9.90;82.13
64362;BME280;50685;53.346;-6.296;2023-01-24T09:22:08;103665.50;;;10.17;80.05
64362;BME280;50685;53.346;-6.296;2023-01-24T09:24:39;103657.59;;;10.43;79.32
64362;BME280;50685;53.346;-6.296;2023-01-24T09:27:04;103660.03;;;10.64;77.29
64362;BME280;50685;53.346;-6.296;2023-01-24T09:29:29;103663.31;;;10.83;79.39
64362;BME280;50685;53.346;-6.296;2023-01-24T09:31:55;103654.75;;;10.91;77.08
64362;BME280;50685;53.346;-6.296;2023-01-24T09:34:20;103664.84;;;11.31;82.56
64362;BME280;50685;53.346;-6.296;2023-01-24T09:36:49;103663.97;;;11.62;81.56
64362;BME280;50685;53.346;-6.296;2023-01-24T09:45:27;103657.91;;;12.30;72.47
64362;BME280;50685;53.346;-6.296;2023-01-24T09:48:00;103636.94;;;12.43;69.61
64362;BME280;50685;53.346;-6.296;2023-01-24T09:50:45;103647.06;;;12.58;68.78
64362;BME280;50685;53.346;-6.296;2023-01-24T09:53:18;103656.38;;;13.13;78.35
64362;BME280;50685;53.346;-6.296;2023-01-24T09:55:47;103652.84;;;13.54;78.94
64362;BME280;50685;53.346;-6.296;2023-01-24T09:58:21;103651.13;;;13.58;75.53
64362;BME280;50685;53.346;-6.296;2023-01-24T10:00:58;103648.34;;;13.52;69.60
64362;BME280;50685;53.346;-6.296;2023-01-24T10:03:27;103660.88;;;13.56;74.37
64362;BME280;50685;53.346;-6.296;2023-01-24T10:05:57;103658.28;;;13.59;73.58
64362;BME280;50685;53.346;-6.296;2023-01-24T10:08:27;103663.44;;;13.49;73.06
64362;BME280;50685;53.346;-6.296;2023-01-24T10:24:06;103668.22;;;13.26;67.98
64362;BME280;50685;53.346;-6.296;2023-01-24T10:26:41;103668.94;;;13.19;67.65
64362;BME280;50685;53.346;-6.296;2023-01-24T10:29:17;103665.56;;;13.26;74.19
64362;BME280;50685;53.346;-6.296;2023-01-24T10:31:50;103665.56;;;13.28;68.99
64362;BME280;50685;53.346;-6.296;2023-01-24T10:34:35;103673.56;;;13.28;72.64
64362;BME280;50685;53.346;-6.296;2023-01-24T10:39:34;103666.75;;;13.01;68.26
64362;BME280;50685;53.346;-6.296;2023-01-24T10:42:44;103669.69;;;13.13;70.17
64362;BME280;50685;53.346;-6.296;2023-01-24T10:44:51;103673.47;;;13.23;68.02
64362;BME280;50685;53.346;-6.296;2023-01-24T10:50:04;103677.72;;;13.53;71.96
64362;BME280;50685;53.346;-6.296;2023-01-24T10:52:33;103675.44;;;13.72;69.94
64362;BME280;50685;53.346;-6.296;2023-01-24T10:55:00;103672.41;;;13.97;68.28
64362;BME280;50685;53.346;-6.296;2023-01-24T10:59:55;103674.56;;;14.19;67.65
64362;BME280;50685;53.346;-6.296;2023-01-24T11:02:26;103669.03;;;14.08;68.56
64362;BME280;50685;53.346;-6.296;2023-01-24T11:07:50;103671.13;;;13.80;69.32
64362;BME280;50685;53.346;-6.296;2023-01-24T11:10:38;103671.84;;;13.71;68.24
64362;BME280;50685;53.346;-6.296;2023-01-24T11:15:46;103660.91;;;13.57;67.05
64362;BME280;50685;53.346;-6.296;2023-01-24T11:18:24;103666.88;;;13.45;65.97
64362;BME280;50685;53.346;-6.296;2023-01-24T11:21:08;103657.91;;;13.42;70.09
64362;BME280;50685;53.346;-6.296;2023-01-24T11:23:36;103651.84;;;13.49;68.96
64362;BME280;50685;53.346;-6.296;2023-01-24T11:26:03;103647.81;;;13.70;68.61
64362;BME280;50685;53.346;-6.296;2023-01-24T11:28:35;103638.94;;;13.69;68.93
64362;BME280;50685;53.346;-6.296;2023-01-24T11:31:05;103645.03;;;13.63;67.53
64362;BME280;50685;53.346;-6.296;2023-01-24T11:36:23;103634.00;;;13.45;67.73
64362;BME280;50685;53.346;-6.296;2023-01-24T11:38:53;103628.84;;;13.14;67.82
64362;BME280;50685;53.346;-6.296;2023-01-24T11:44:12;103623.56;;;12.41;69.28
64362;BME280;50685;53.346;-6.296;2023-01-24T11:47:02;103624.91;;;12.24;69.69
64362;BME280;50685;53.346;-6.296;2023-01-24T12:03:48;103605.91;;;12.45;68.63
64362;BME280;50685;53.346;-6.296;2023-01-24T12:17:52;103602.34;;;12.09;70.75
64362;BME280;50685;53.346;-6.296;2023-01-24T12:20:24;103599.41;;;12.32;69.57
64362;BME280;50685;53.346;-6.296;2023-01-24T12:22:53;103597.19;;;12.50;68.50
64362;BME280;50685;53.346;-6.296;2023-01-24T12:25:26;103604.91;;;12.76;68.26
64362;BME280;50685;53.346;-6.296;2023-01-24T12:27:56;103579.28;;;12.81;67.70
64362;BME280;50685;53.346;-6.296;2023-01-24T12:32:59;103603.25;;;12.81;67.19
64362;BME280;50685;53.346;-6.296;2023-01-24T12:43:46;103585.75;;;13.78;65.06
64362;BME280;50685;53.346;-6.296;2023-01-24T12:46:19;103592.03;;;13.80;64.30
64362;BME280;50685;53.346;-6.296;2023-01-24T12:51:26;103587.47;;;13.75;63.81
64362;BME280;50685;53.346;-6.296;2023-01-24T13:12:12;103583.25;;;14.38;62.21
64362;BME280;50685;53.346;-6.296;2023-01-24T13:14:40;103591.25;;;14.37;61.48
64362;BME280;50685;53.346;-6.296;2023-01-24T13:24:54;103582.28;;;14.90;60.42
64362;BME280;50685;53.346;-6.296;2023-01-24T13:29:59;103578.59;;;14.26;61.57
64362;BME280;50685;53.346;-6.296;2023-01-24T13:32:29;103585.31;;;14.03;62.32
64362;BME280;50685;53.346;-6.296;2023-01-24T13:34:56;103577.72;;;13.77;63.46
64362;BME280;50685;53.346;-6.296;2023-01-24T13:37:26;103587.94;;;13.54;64.06
64362;BME280;50685;53.346;-6.296;2023-01-24T13:40:26;103581.44;;;13.39;64.58
64362;BME280;50685;53.346;-6.296;2023-01-24T13:42:44;103579.56;;;13.35;64.99
64362;BME280;50685;53.346;-6.296;2023-01-24T13:47:58;103583.84;;;13.71;63.05
64362;BME280;50685;53.346;-6.296;2023-01-24T13:50:24;103573.47;;;13.41;63.76
64362;BME280;50685;53.346;-6.296;2023-01-24T13:52:53;103581.16;;;13.27;63.87
64362;BME280;50685;53.346;-6.296;2023-01-24T14:00:33;103578.41;;;12.82;66.40
64362;BME280;50685;53.346;-6.296;2023-01-24T14:16:54;103573.88;;;12.40;68.38
64362;BME280;50685;53.346;-6.296;2023-01-24T14:18:59;103579.84;;;12.31;69.01
64362;BME280;50685;53.346;-6.296;2023-01-24T14:21:31;103580.78;;;12.32;69.28
64362;BME280;50685;53.346;-6.296;2023-01-24T14:24:01;103573.31;;;12.17;69.12
64362;BME280;50685;53.346;-6.296;2023-01-24T14:26:31;103571.91;;;11.98;70.04
64362;BME280;50685;53.346;-6.296;2023-01-24T14:29:03;103580.34;;;11.81;69.94
64362;BME280;50685;53.346;-6.296;2023-01-24T14:31:30;103578.50;;;11.79;70.25
64362;BME280;50685;53.346;-6.296;2023-01-24T14:33:58;103574.88;;;11.77;70.53
64362;BME280;50685;53.346;-6.296;2023-01-24T14:36:33;103584.69;;;11.79;70.51
64362;BME280;50685;53.346;-6.296;2023-01-24T14:41:45;103579.47;;;11.82;70.77
64362;BME280;50685;53.346;-6.296;2023-01-24T14:44:15;103572.84;;;11.98;70.39
64362;BME280;50685;53.346;-6.296;2023-01-24T14:46:40;103577.75;;;12.54;68.74
64362;BME280;50685;53.346;-6.296;2023-01-24T14:49:12;103563.75;;;13.01;66.56
64362;BME280;50685;53.346;-6.296;2023-01-24T14:51:42;103571.94;;;13.54;65.17
64362;BME280;50685;53.346;-6.296;2023-01-24T14:54:15;103570.09;;;13.97;63.66
64362;BME280;50685;53.346;-6.296;2023-01-24T14:56:43;103563.59;;;14.35;62.68
64362;BME280;50685;53.346;-6.296;2023-01-24T14:59:11;103557.53;;;14.45;60.84
64362;BME280;50685;53.346;-6.296;2023-01-24T15:01:40;103557.78;;;14.62;60.38
64362;BME280;50685;53.346;-6.296;2023-01-24T15:04:18;103561.44;;;14.67;60.19
64362;BME280;50685;53.346;-6.296;2023-01-24T15:07:01;103555.13;;;14.62;59.84
64362;BME280;50685;53.346;-6.296;2023-01-24T15:09:27;103562.53;;;14.78;60.24
64362;BME280;50685;53.346;-6.296;2023-01-24T15:11:52;103564.16;;;14.69;59.53
64362;BME280;50685;53.346;-6.296;2023-01-24T15:14:18;103563.25;;;14.67;60.73
64362;BME280;50685;53.346;-6.296;2023-01-24T15:17:02;103566.66;;;14.61;59.68
64362;BME280;50685;53.346;-6.296;2023-01-24T15:19:27;103565.63;;;14.50;59.40
64362;BME280;50685;53.346;-6.296;2023-01-24T15:21:56;103557.63;;;14.51;60.36
64362;BME280;50685;53.346;-6.296;2023-01-24T15:24:29;103561.88;;;14.38;59.92
64362;BME280;50685;53.346;-6.296;2023-01-24T15:26:55;103566.47;;;14.49;60.59
64362;BME280;50685;53.346;-6.296;2023-01-24T15:32:16;103559.31;;;14.44;60.40
64362;BME280;50685;53.346;-6.296;2023-01-24T15:34:43;103569.81;;;14.34;60.24
64362;BME280;50685;53.346;-6.296;2023-01-24T15:37:09;103561.69;;;14.26;61.13
64362;BME280;50685;53.346;-6.296;2023-01-24T15:39:36;103561.41;;;14.09;61.47
64362;BME280;50685;53.346;-6.296;2023-01-24T15:42:05;103564.91;;;14.06;60.76
64362;BME280;50685;53.346;-6.296;2023-01-24T15:44:48;103559.78;;;14.19;61.46
64362;BME280;50685;53.346;-6.296;2023-01-24T15:47:21;103564.28;;;14.23;61.54
64362;BME280;50685;53.346;-6.296;2023-01-24T15:50:21;103560.28;;;13.96;62.02
64362;BME280;50685;53.346;-6.296;2023-01-24T15:55:44;103577.09;;;13.44;63.49
64362;BME280;50685;53.346;-6.296;2023-01-24T15:58:09;103582.06;;;13.27;64.74
64362;BME280;50685;53.346;-6.296;2023-01-24T16:00:35;103591.28;;;13.02;65.02
64362;BME280;50685;53.346;-6.296;2023-01-24T16:03:01;103596.06;;;12.77;65.73
64362;BME280;50685;53.346;-6.296;2023-01-24T16:05:26;103588.66;;;12.64;66.91
64362;BME280;50685;53.346;-6.296;2023-01-24T16:07:54;103590.22;;;12.56;67.08
64362;BME280;50685;53.346;-6.296;2023-01-24T16:10:19;103596.22;;;12.47;67.32
64362;BME280;50685;53.346;-6.296;2023-01-24T16:12:45;103593.22;;;12.33;67.57
64362;BME280;50685;53.346;-6.296;2023-01-24T16:15:15;103594.69;;;12.21;68.52
64362;BME280;50685;53.346;-6.296;2023-01-24T16:17:40;103588.16;;;12.09;69.01
64362;BME280;50685;53.346;-6.296;2023-01-24T16:20:17;103593.97;;;11.94;69.43
64362;BME280;50685;53.346;-6.296;2023-01-24T16:22:42;103600.91;;;11.88;69.98
64362;BME280;50685;53.346;-6.296;2023-01-24T16:25:11;103599.84;;;11.82;69.82
64362;BME280;50685;53.346;-6.296;2023-01-24T16:27:37;103606.63;;;11.70;70.08
64362;BME280;50685;53.346;-6.296;2023-01-24T16:30:05;103604.50;;;11.58;70.44
64362;BME280;50685;53.346;-6.296;2023-01-24T16:32:31;103613.94;;;11.47;70.65
64362;BME280;50685;53.346;-6.296;2023-01-24T16:34:57;103620.22;;;11.49;71.27
64362;BME280;50685;53.346;-6.296;2023-01-24T16:37:23;103623.72;;;11.48;71.38
64362;BME280;50685;53.346;-6.296;2023-01-24T16:39:48;103622.88;;;11.49;70.95
64362;BME280;50685;53.346;-6.296;2023-01-24T16:42:14;103616.69;;;11.50;70.70
64362;BME280;50685;53.346;-6.296;2023-01-24T16:44:40;103615.81;;;11.51;70.74
64362;BME280;50685;53.346;-6.296;2023-01-24T16:47:05;103617.56;;;11.49;70.52
64362;BME280;50685;53.346;-6.296;2023-01-24T16:49:31;103617.56;;;11.49;70.41
64362;BME280;50685;53.346;-6.296;2023-01-24T16:57:03;103603.66;;;11.60;70.09
64362;BME280;50685;53.346;-6.296;2023-01-24T16:59:28;103601.94;;;11.62;70.45
64362;BME280;50685;53.346;-6.296;2023-01-24T17:01:53;103601.03;;;11.61;70.20
64362;BME280;50685;53.346;-6.296;2023-01-24T17:04:19;103603.75;;;11.63;70.49
64362;BME280;50685;53.346;-6.296;2023-01-24T17:06:44;103597.56;;;11.64;70.37
64362;BME280;50685;53.346;-6.296;2023-01-24T17:09:09;103598.44;;;11.63;70.47
64362;BME280;50685;53.346;-6.296;2023-01-24T17:11:35;103600.09;;;11.59;70.58
64362;BME280;50685;53.346;-6.296;2023-01-24T17:14:00;103601.03;;;11.61;70.63
64362;BME280;50685;53.346;-6.296;2023-01-24T17:16:25;103600.16;;;11.61;70.28
64362;BME280;50685;53.346;-6.296;2023-01-24T17:18:51;103599.19;;;11.58;70.74
64362;BME280;50685;53.346;-6.296;2023-01-24T17:21:16;103591.22;;;11.58;70.38
64362;BME280;50685;53.346;-6.296;2023-01-24T17:23:42;103582.19;;;11.52;71.08
64362;BME280;50685;53.346;-6.296;2023-01-24T17:26:09;103583.91;;;11.51;70.80
64362;BME280;50685;53.346;-6.296;2023-01-24T17:28:35;103576.06;;;11.54;70.36
64362;BME280;50685;53.346;-6.296;2023-01-24T17:31:05;103579.50;;;11.50;70.90
64362;BME280;50685;53.346;-6.296;2023-01-24T17:33:32;103581.16;;;11.47;70.81
64362;BME280;50685;53.346;-6.296;2023-01-24T17:35:57;103586.50;;;11.48;70.38
64362;BME280;50685;53.346;-6.296;2023-01-24T17:38:22;103574.97;;;11.48;70.71
64362;BME280;50685;53.346;-6.296;2023-01-24T17:40:49;103573.22;;;11.48;70.64
64362;BME280;50685;53.346;-6.296;2023-01-24T17:43:15;103573.22;;;11.48;70.63
64362;BME280;50685;53.346;-6.296;2023-01-24T17:45:43;103574.91;;;11.46;70.39
64362;BME280;50685;53.346;-6.296;2023-01-24T17:48:13;103580.25;;;11.46;70.69
64362;BME280;50685;53.346;-6.296;2023-01-24T17:50:39;103574.06;;;11.47;70.62
64362;BME280;50685;53.346;-6.296;2023-01-24T17:53:04;103576.72;;;11.47;70.59
64362;BME280;50685;53.346;-6.296;2023-01-24T17:55:29;103572.25;;;11.46;70.46
64362;BME280;50685;53.346;-6.296;2023-01-24T17:57:55;103570.44;;;11.44;70.51
64362;BME280;50685;53.346;-6.296;2023-01-24T18:00:20;103571.06;;;11.35;70.89
64362;BME280;50685;53.346;-6.296;2023-01-24T18:02:45;103579.66;;;11.26;71.45
64362;BME280;50685;53.346;-6.296;2023-01-24T18:05:11;103591.16;;;11.25;71.84
64362;BME280;50685;53.346;-6.296;2023-01-24T18:07:36;103585.81;;;11.23;71.95
64362;BME280;50685;53.346;-6.296;2023-01-24T18:10:02;103592.00;;;11.24;71.75
64362;BME280;50685;53.346;-6.296;2023-01-24T18:12:27;103594.63;;;11.22;71.70
64362;BME280;50685;53.346;-6.296;2023-01-24T18:14:52;103597.34;;;11.25;72.02
64362;BME280;50685;53.346;-6.296;2023-01-24T18:17:18;103593.78;;;11.23;71.95
64362;BME280;50685;53.346;-6.296;2023-01-24T18:19:43;103595.56;;;11.24;72.08
64362;BME280;50685;53.346;-6.296;2023-01-24T18:22:10;103597.47;;;11.29;71.49
64362;BME280;50685;53.346;-6.296;2023-01-24T18:24:35;103599.19;;;11.28;71.78
64362;BME280;50685;53.346;-6.296;2023-01-24T18:27:00;103592.16;;;11.29;71.37
64362;BME280;50685;53.346;-6.296;2023-01-24T18:29:26;103594.03;;;11.33;71.48
64362;BME280;50685;53.346;-6.296;2023-01-24T18:31:51;103592.31;;;11.35;71.80
64362;BME280;50685;53.346;-6.296;2023-01-24T18:34:16;103594.94;;;11.33;71.54
64362;BME280;50685;53.346;-6.296;2023-01-24T18:36:42;103584.25;;;11.32;72.51
64362;BME280;50685;53.346;-6.296;2023-01-24T18:39:07;103585.91;;;11.28;72.64
64362;BME280;50685;53.346;-6.296;2023-01-24T18:41:32;103585.97;;;11.30;72.61
64362;BME280;50685;53.346;-6.296;2023-01-24T18:43:58;103590.34;;;11.28;72.09
64362;BME280;50685;53.346;-6.296;2023-01-24T18:46:24;103592.97;;;11.26;72.02
64362;BME280;50685;53.346;-6.296;2023-01-24T18:48:49;103593.78;;;11.23;72.28
64362;BME280;50685;53.346;-6.296;2023-01-24T18:51:15;103584.75;;;11.18;72.81
64362;BME280;50685;53.346;-6.296;2023-01-24T18:53:41;103584.75;;;11.18;72.46
64362;BME280;50685;53.346;-6.296;2023-01-24T18:56:07;103586.47;;;11.16;72.60
64362;BME280;50685;53.346;-6.296;2023-01-24T18:58:34;103583.78;;;11.15;72.69
64362;BME280;50685;53.346;-6.296;2023-01-24T19:00:59;103580.97;;;11.10;73.17
64362;BME280;50685;53.346;-6.296;2023-01-24T19:03:24;103571.19;;;11.09;73.69
64362;BME280;50685;53.346;-6.296;2023-01-24T19:05:50;103573.84;;;11.09;72.99
64362;BME280;50685;53.346;-6.296;2023-01-24T19:08:15;103576.38;;;11.04;73.60
64362;BME280;50685;53.346;-6.296;2023-01-24T19:10:40;103571.91;;;11.03;73.79
64362;BME280;50685;53.346;-6.296;2023-01-24T19:13:06;103573.56;;;11.00;74.43
64362;BME280;50685;53.346;-6.296;2023-01-24T19:15:31;103573.56;;;11.00;74.09
64362;BME280;50685;53.346;-6.296;2023-01-24T19:17:56;103561.03;;;10.94;74.69
64362;BME280;50685;53.346;-6.296;2023-01-24T19:20:22;103570.59;;;10.89;74.57
64362;BME280;50685;53.346;-6.296;2023-01-24T19:22:47;103566.00;;;10.83;75.26
64362;BME280;50685;53.346;-6.296;2023-01-24T19:25:12;103574.72;;;10.79;75.47
64362;BME280;50685;53.346;-6.296;2023-01-24T19:27:38;103576.44;;;10.77;75.37
64362;BME280;50685;53.346;-6.296;2023-01-24T19:30:04;103576.31;;;10.74;76.23
64362;BME280;50685;53.346;-6.296;2023-01-24T19:32:30;103569.22;;;10.73;76.37
64362;BME280;50685;53.346;-6.296;2023-01-24T19:34:55;103572.63;;;10.69;76.29
64362;BME280;50685;53.346;-6.296;2023-01-24T19:37:20;103564.50;;;10.64;77.21
64362;BME280;50685;53.346;-6.296;2023-01-24T19:39:45;103565.38;;;10.63;77.12
64362;BME280;50685;53.346;-6.296;2023-01-24T19:42:11;103568.03;;;10.63;77.20
64362;BME280;50685;53.346;-6.296;2023-01-24T19:44:36;103566.34;;;10.67;77.18
64362;BME280;50685;53.346;-6.296;2023-01-24T19:47:02;103563.69;;;10.67;76.85
64362;BME280;50685;53.346;-6.296;2023-01-24T19:49:27;103559.38;;;10.70;76.97
64362;BME280;50685;53.346;-6.296;2023-01-24T19:51:53;103555.00;;;10.71;76.93
64362;BME280;50685;53.346;-6.296;2023-01-24T19:54:19;103556.66;;;10.67;77.07
64362;BME280;50685;53.346;-6.296;2023-01-24T19:56:44;103558.25;;;10.62;77.35
64362;BME280;50685;53.346;-6.296;2023-01-24T19:59:09;103557.31;;;10.60;77.61
64362;BME280;50685;53.346;-6.296;2023-01-24T20:01:34;103560.81;;;10.59;77.35
64362;BME280;50685;53.346;-6.296;2023-01-24T20:04:00;103554.56;;;10.57;77.99
64362;BME280;50685;53.346;-6.296;2023-01-24T20:06:25;103551.81;;;10.54;77.90
64362;BME280;50685;53.346;-6.296;2023-01-24T20:08:51;103557.91;;;10.51;78.27
64362;BME280;50685;53.346;-6.296;2023-01-24T20:11:17;103560.47;;;10.48;78.28
64362;BME280;50685;53.346;-6.296;2023-01-24T20:13:42;103555.97;;;10.45;77.93
64362;BME280;50685;53.346;-6.296;2023-01-24T20:16:13;103553.09;;;10.39;78.65
64362;BME280;50685;53.346;-6.296;2023-01-24T20:18:40;103554.88;;;10.39;79.02
64362;BME280;50685;53.346;-6.296;2023-01-24T20:21:05;103559.22;;;10.37;78.96
64362;BME280;50685;53.346;-6.296;2023-01-24T20:23:30;103555.53;;;10.33;79.24
64362;BME280;50685;53.346;-6.296;2023-01-24T20:26:00;103557.13;;;10.28;79.36
64362;BME280;50685;53.346;-6.296;2023-01-24T20:28:25;103555.31;;;10.27;79.45
64362;BME280;50685;53.346;-6.296;2023-01-24T20:30:50;103562.28;;;10.23;79.60
64362;BME280;50685;53.346;-6.296;2023-01-24T20:33:16;103562.19;;;10.20;79.62
64362;BME280;50685;53.346;-6.296;2023-01-24T20:35:42;103563.06;;;10.21;79.58
64362;BME280;50685;53.346;-6.296;2023-01-24T20:38:07;103552.38;;;10.18;79.33
64362;BME280;50685;53.346;-6.296;2023-01-24T20:40:33;103556.59;;;10.12;80.14
64362;BME280;50685;53.346;-6.296;2023-01-24T20:42:58;103552.91;;;10.07;80.19
64362;BME280;50685;53.346;-6.296;2023-01-24T20:45:23;103559.84;;;10.04;80.71
64362;BME280;50685;53.346;-6.296;2023-01-24T20:47:49;103558.78;;;9.99;80.73
64362;BME280;50685;53.346;-6.296;2023-01-24T20:50:14;103560.59;;;10.00;80.59
64362;BME280;50685;53.346;-6.296;2023-01-24T20:52:39;103554.28;;;9.96;81.05
64362;BME280;50685;53.346;-6.296;2023-01-24T20:55:05;103553.31;;;9.94;81.26
64362;BME280;50685;53.346;-6.296;2023-01-24T20:57:30;103551.44;;;9.90;81.35
64362;BME280;50685;53.346;-6.296;2023-01-24T20:59:56;103550.31;;;9.83;81.72
64362;BME280;50685;53.346;-6.296;2023-01-24T21:02:21;103554.84;;;9.86;81.79
64362;BME280;50685;53.346;-6.296;2023-01-24T21:04:47;103544.03;;;9.79;81.81
64362;BME280;50685;53.346;-6.296;2023-01-24T21:07:12;103548.53;;;9.82;81.90
64362;BME280;50685;53.346;-6.296;2023-01-24T21:09:37;103545.69;;;9.77;82.09
64362;BME280;50685;53.346;-6.296;2023-01-24T21:12:03;103544.06;;;9.81;82.13
64362;BME280;50685;53.346;-6.296;2023-01-24T21:14:28;103547.72;;;9.85;82.34
64362;BME280;50685;53.346;-6.296;2023-01-24T21:16:53;103546.88;;;9.86;81.83
64362;BME280;50685;53.346;-6.296;2023-01-24T21:19:19;103540.66;;;9.85;82.26
64362;BME280;50685;53.346;-6.296;2023-01-24T21:21:47;103544.16;;;9.84;82.42
64362;BME280;50685;53.346;-6.296;2023-01-24T21:24:13;103532.75;;;9.87;82.11
64362;BME280;50685;53.346;-6.296;2023-01-24T21:26:40;103528.38;;;9.87;82.14
64362;BME280;50685;53.346;-6.296;2023-01-24T21:29:06;103534.41;;;9.83;82.83
64362;BME280;50685;53.346;-6.296;2023-01-24T21:31:31;103524.72;;;9.84;82.70
64362;BME280;50685;53.346;-6.296;2023-01-24T21:33:57;103529.16;;;9.85;82.83
64362;BME280;50685;53.346;-6.296;2023-01-24T21:36:23;103521.22;;;9.85;82.78
64362;BME280;50685;53.346;-6.296;2023-01-24T21:38:49;103516.72;;;9.82;82.93
64362;BME280;50685;53.346;-6.296;2023-01-24T21:41:15;103521.84;;;9.77;82.98
64362;BME280;50685;53.346;-6.296;2023-01-24T21:44:00;103511.97;;;9.73;83.29
64362;BME280;50685;53.346;-6.296;2023-01-24T21:46:25;103518.19;;;9.74;83.80
64362;BME280;50685;53.346;-6.296;2023-01-24T21:48:51;103515.41;;;9.71;84.16
64362;BME280;50685;53.346;-6.296;2023-01-24T21:54:09;103512.91;;;9.74;83.84
64362;BME280;50685;53.346;-6.296;2023-01-24T21:56:36;103527.94;;;9.75;83.85
64362;BME280;50685;53.346;-6.296;2023-01-24T21:59:20;103526.19;;;9.75;84.04
64362;BME280;50685;53.346;-6.296;2023-01-24T22:01:47;103516.56;;;9.77;83.99
64362;BME280;50685;53.346;-6.296;2023-01-24T22:04:13;103527.25;;;9.80;84.14
64362;BME280;50685;53.346;-6.296;2023-01-24T22:06:38;103521.94;;;9.80;84.45
64362;BME280;50685;53.346;-6.296;2023-01-24T22:09:03;103506.13;;;9.82;84.23
64362;BME280;50685;53.346;-6.296;2023-01-24T22:11:29;103512.97;;;9.77;84.94
64362;BME280;50685;53.346;-6.296;2023-01-24T22:13:54;103512.94;;;9.75;85.56
64362;BME280;50685;53.346;-6.296;2023-01-24T22:16:20;103504.91;;;9.72;85.78
64362;BME280;50685;53.346;-6.296;2023-01-24T22:18:45;103511.94;;;9.72;86.17
64362;BME280;50685;53.346;-6.296;2023-01-24T22:21:34;103516.38;;;9.73;86.31
64362;BME280;50685;53.346;-6.296;2023-01-24T22:27:21;103509.19;;;9.69;86.49
64362;BME280;50685;53.346;-6.296;2023-01-24T22:29:39;103512.56;;;9.64;87.21
64362;BME280;50685;53.346;-6.296;2023-01-24T22:32:05;103514.28;;;9.62;87.42
64362;BME280;50685;53.346;-6.296;2023-01-24T22:34:30;103508.09;;;9.63;87.50
64362;BME280;50685;53.346;-6.296;2023-01-24T22:39:40;103501.75;;;9.58;87.92
64362;BME280;50685;53.346;-6.296;2023-01-24T22:42:05;103496.53;;;9.60;87.92
64362;BME280;50685;53.346;-6.296;2023-01-24T22:44:30;103497.28;;;9.57;88.49
64362;BME280;50685;53.346;-6.296;2023-01-24T22:46:56;103488.38;;;9.54;88.60
64362;BME280;50685;53.346;-6.296;2023-01-24T22:49:21;103486.56;;;9.53;88.91
64362;BME280;50685;53.346;-6.296;2023-01-24T22:51:46;103488.28;;;9.52;89.25
64362;BME280;50685;53.346;-6.296;2023-01-24T22:54:12;103485.72;;;9.54;88.92
64362;BME280;50685;53.346;-6.296;2023-01-24T22:56:37;103475.13;;;9.54;89.26
64362;BME280;50685;53.346;-6.296;2023-01-24T22:59:02;103472.50;;;9.55;88.88
64362;BME280;50685;53.346;-6.296;2023-01-24T23:01:28;103472.47;;;9.54;89.30
64362;BME280;50685;53.346;-6.296;2023-01-24T23:03:53;103487.50;;;9.55;89.69
64362;BME280;50685;53.346;-6.296;2023-01-24T23:06:19;103478.69;;;9.56;89.75
64362;BME280;50685;53.346;-6.296;2023-01-24T23:08:44;103478.75;;;9.57;89.33
64362;BME280;50685;53.346;-6.296;2023-01-24T23:11:13;103483.09;;;9.55;89.78
64362;BME280;50685;53.346;-6.296;2023-01-24T23:13:39;103483.91;;;9.53;89.80
64362;BME280;50685;53.346;-6.296;2023-01-24T23:16:28;103487.34;;;9.50;89.85
64362;BME280;50685;53.346;-6.296;2023-01-24T23:18:57;103488.19;;;9.49;90.31
64362;BME280;50685;53.346;-6.296;2023-01-24T23:21:41;103483.78;;;9.49;90.28
64362;BME280;50685;53.346;-6.296;2023-01-24T23:24:07;103482.06;;;9.50;90.20
64362;BME280;50685;53.346;-6.296;2023-01-24T23:26:32;103491.69;;;9.48;90.42
64362;BME280;50685;53.346;-6.296;2023-01-24T23:31:35;103473.19;;;9.49;90.08
64362;BME280;50685;53.346;-6.296;2023-01-24T23:34:00;103474.03;;;9.48;90.45
64362;BME280;50685;53.346;-6.296;2023-01-24T23:36:25;103486.44;;;9.49;90.31
64362;BME280;50685;53.346;-6.296;2023-01-24T23:38:51;103475.66;;;9.45;90.39
64362;BME280;50685;53.346;-6.296;2023-01-24T23:41:16;103479.22;;;9.45;90.73
64362;BME280;50685;53.346;-6.296;2023-01-24T23:43:41;103474.81;;;9.46;90.88
64362;BME280;50685;53.346;-6.296;2023-01-24T23:46:09;103465.16;;;9.46;91.00
64362;BME280;50685;53.346;-6.296;2023-01-24T23:48:35;103465.19;;;9.48;90.91